createdAt,value
2023-05-18T00:00:02.937Z,625.00
2023-05-18T00:01:02.988Z,629.00
2023-05-18T00:02:03.084Z,630.00
2023-05-18T00:03:02.210Z,635.00
2023-05-18T00:04:02.227Z,631.00
2023-05-18T00:05:03.138Z,632.00
2023-05-18T00:06:02.191Z,631.00
2023-05-18T00:07:02.221Z,631.00
2023-05-18T00:08:02.297Z,632.00
2023-05-18T00:09:02.303Z,626.00
2023-05-18T00:10:03.413Z,635.00
2023-05-18T00:11:03.394Z,639.00
2023-05-18T00:12:02.435Z,639.00
2023-05-18T00:13:03.472Z,633.00
2023-05-18T00:14:02.524Z,634.00
2023-05-18T00:15:03.574Z,631.00
2023-05-18T00:16:03.658Z,629.00
2023-05-18T00:17:02.661Z,628.00
2023-05-18T00:18:03.775Z,634.00
2023-05-18T00:19:02.876Z,632.00
2023-05-18T00:20:02.808Z,635.00
2023-05-18T00:21:03.842Z,628.00
2023-05-18T00:22:03.863Z,623.00
2023-05-18T00:23:02.932Z,622.00
2023-05-18T00:24:02.940Z,616.00
2023-05-18T00:25:03.988Z,619.00
2023-05-18T00:26:03.016Z,616.00
2023-05-18T00:27:03.074Z,616.00
2023-05-18T00:28:04.107Z,620.00
2023-05-18T00:29:04.162Z,615.00
2023-05-18T00:30:04.194Z,618.00
2023-05-18T00:31:03.230Z,622.00
2023-05-18T00:32:04.427Z,624.00
2023-05-18T00:33:03.485Z,619.00
2023-05-18T00:34:04.402Z,622.00
2023-05-18T00:35:04.425Z,620.00
2023-05-18T00:36:04.468Z,617.00
2023-05-18T00:37:04.517Z,613.00
2023-05-18T00:38:03.572Z,615.00
2023-05-18T00:39:03.626Z,618.00
2023-05-18T00:40:03.680Z,621.00
2023-05-18T00:41:03.719Z,620.00
2023-05-18T00:42:04.761Z,619.00
2023-05-18T00:43:04.806Z,620.00
2023-05-18T00:44:05.166Z,618.00
2023-05-18T00:45:04.896Z,619.00
2023-05-18T00:46:04.935Z,617.00
2023-05-18T00:47:03.992Z,618.00
2023-05-18T00:48:04.106Z,612.00
2023-05-18T00:49:05.089Z,611.00
2023-05-18T00:50:05.153Z,614.00
2023-05-18T00:51:04.171Z,610.00
2023-05-18T00:52:05.232Z,604.00
2023-05-18T00:53:05.275Z,607.00
2023-05-18T00:54:05.314Z,609.00
2023-05-18T00:55:05.370Z,611.00
2023-05-18T00:56:04.419Z,611.00
2023-05-18T00:57:05.471Z,610.00
2023-05-18T00:58:05.548Z,604.00
2023-05-18T00:59:05.564Z,604.00
2023-05-18T01:00:05.608Z,603.00
2023-05-18T01:01:04.665Z,605.00
2023-05-18T01:02:05.705Z,604.00
2023-05-18T01:03:04.821Z,606.00
2023-05-18T01:04:05.796Z,606.00
2023-05-18T01:05:05.856Z,606.00
2023-05-18T01:06:04.919Z,606.00
2023-05-18T01:07:05.931Z,608.00
2023-05-18T01:08:05.984Z,611.00
2023-05-18T01:09:06.025Z,607.00
2023-05-18T01:10:05.081Z,612.00
2023-05-18T01:11:06.104Z,608.00
2023-05-18T01:12:09.712Z,608.00
2023-05-18T01:13:06.149Z,608.00
2023-05-18T01:14:06.158Z,608.00
2023-05-18T01:15:05.122Z,605.00
2023-05-18T01:16:06.123Z,606.00
2023-05-18T01:17:06.158Z,610.00
2023-05-18T01:18:05.351Z,604.00
2023-05-18T01:19:06.140Z,608.00
2023-05-18T01:20:05.094Z,603.00
2023-05-18T01:21:06.077Z,607.00
2023-05-18T01:22:06.108Z,608.00
2023-05-18T01:23:06.106Z,600.00
2023-05-18T01:24:06.082Z,606.00
2023-05-18T01:25:06.060Z,605.00
2023-05-18T01:26:06.042Z,605.00
2023-05-18T01:27:06.053Z,609.00
2023-05-18T01:28:05.044Z,611.00
2023-05-18T01:29:05.029Z,609.00
2023-05-18T01:30:05.039Z,606.00
2023-05-18T01:31:05.111Z,608.00
2023-05-18T01:32:05.160Z,607.00
2023-05-18T01:33:05.261Z,609.00
2023-05-18T01:34:06.255Z,608.00
2023-05-18T01:35:06.339Z,607.00
2023-05-18T01:36:06.367Z,607.00
2023-05-18T01:37:05.444Z,604.00
2023-05-18T01:38:06.521Z,605.00
2023-05-18T01:39:06.527Z,605.00
2023-05-18T01:40:06.610Z,601.00
2023-05-18T01:41:05.648Z,603.00
2023-05-18T01:42:06.709Z,604.00
2023-05-18T01:43:05.733Z,604.00
2023-05-18T01:44:06.779Z,599.00
2023-05-18T01:45:05.833Z,600.00
2023-05-18T01:46:05.905Z,600.00
2023-05-18T01:47:06.949Z,603.00
2023-05-18T01:48:07.118Z,600.00
2023-05-18T01:49:06.063Z,600.00
2023-05-18T01:50:07.118Z,600.00
2023-05-18T01:51:06.168Z,606.00
2023-05-18T01:52:07.227Z,601.00
2023-05-18T01:53:06.296Z,598.00
2023-05-18T01:54:07.350Z,598.00
2023-05-18T01:55:07.389Z,596.00
2023-05-18T01:56:06.424Z,599.00
2023-05-18T01:57:06.661Z,590.00
2023-05-18T01:58:06.523Z,594.00
2023-05-18T01:59:06.640Z,590.00
2023-05-18T02:00:06.628Z,593.00
2023-05-18T02:01:06.688Z,595.00
2023-05-18T02:02:06.819Z,591.00
2023-05-18T02:03:07.892Z,590.00
2023-05-18T02:04:08.045Z,593.00
2023-05-18T02:05:06.915Z,588.00
2023-05-18T02:06:07.964Z,595.00
2023-05-18T02:07:07.029Z,594.00
2023-05-18T02:08:07.085Z,592.00
2023-05-18T02:09:07.158Z,587.00
2023-05-18T02:10:07.259Z,588.00
2023-05-18T02:11:08.250Z,586.00
2023-05-18T02:12:07.324Z,587.00
2023-05-18T02:13:08.373Z,587.00
2023-05-18T02:14:08.414Z,588.00
2023-05-18T02:15:07.480Z,593.00
2023-05-18T02:16:08.612Z,592.00
2023-05-18T02:17:08.591Z,590.00
2023-05-18T02:18:08.788Z,597.00
2023-05-18T02:19:08.779Z,588.00
2023-05-18T02:20:07.782Z,582.00
2023-05-18T02:21:08.809Z,585.00
2023-05-18T02:22:07.869Z,589.00
2023-05-18T02:23:07.940Z,587.00
2023-05-18T02:24:08.985Z,584.00
2023-05-18T02:25:08.060Z,592.00
2023-05-18T02:26:08.139Z,592.00
2023-05-18T02:27:09.180Z,589.00
2023-05-18T02:28:08.229Z,592.00
2023-05-18T02:29:09.278Z,591.00
2023-05-18T02:30:08.354Z,594.00
2023-05-18T02:31:08.396Z,591.00
2023-05-18T02:32:09.583Z,596.00
2023-05-18T02:33:09.613Z,592.00
2023-05-18T02:34:08.602Z,590.00
2023-05-18T02:35:09.639Z,592.00
2023-05-18T02:36:08.699Z,590.00
2023-05-18T02:37:09.760Z,588.00
2023-05-18T02:38:08.830Z,591.00
2023-05-18T02:39:09.920Z,597.00
2023-05-18T02:40:08.932Z,595.00
2023-05-18T02:41:09.001Z,594.00
2023-05-18T02:42:09.095Z,592.00
2023-05-18T02:43:10.127Z,599.00
2023-05-18T02:44:10.232Z,591.00
2023-05-18T02:45:09.219Z,587.00
2023-05-18T02:46:09.338Z,587.00
2023-05-18T02:47:09.366Z,594.00
2023-05-18T02:48:10.441Z,597.00
2023-05-18T02:49:10.520Z,593.00
2023-05-18T02:50:10.525Z,593.00
2023-05-18T02:51:09.584Z,595.00
2023-05-18T02:52:10.652Z,591.00
2023-05-18T02:53:10.688Z,589.00
2023-05-18T02:54:09.820Z,591.00
2023-05-18T02:55:10.827Z,594.00
2023-05-18T02:56:10.899Z,590.00
2023-05-18T02:57:10.936Z,591.00
2023-05-18T02:58:10.972Z,587.00
2023-05-18T02:59:10.027Z,586.00
2023-05-18T03:00:10.085Z,586.00
2023-05-18T03:01:11.171Z,583.00
2023-05-18T03:02:11.206Z,581.00
2023-05-18T03:03:11.406Z,580.00
2023-05-18T03:04:10.321Z,580.00
2023-05-18T03:05:11.384Z,582.00
2023-05-18T03:06:11.444Z,580.00
2023-05-18T03:07:11.586Z,581.00
2023-05-18T03:08:10.551Z,586.00
2023-05-18T03:09:11.602Z,580.00
2023-05-18T03:10:10.662Z,581.00
2023-05-18T03:11:11.710Z,590.00
2023-05-18T03:12:11.814Z,588.00
2023-05-18T03:13:11.936Z,583.00
2023-05-18T03:14:11.912Z,583.00
2023-05-18T03:15:11.951Z,579.00
2023-05-18T03:16:12.054Z,579.00
2023-05-18T03:17:12.123Z,577.00
2023-05-18T03:18:12.203Z,580.00
2023-05-18T03:19:11.206Z,582.00
2023-05-18T03:20:12.247Z,581.00
2023-05-18T03:21:12.283Z,585.00
2023-05-18T03:22:11.369Z,583.00
2023-05-18T03:23:12.444Z,583.00
2023-05-18T03:24:12.517Z,586.00
2023-05-18T03:25:12.551Z,577.00
2023-05-18T03:26:11.722Z,581.00
2023-05-18T03:27:12.690Z,581.00
2023-05-18T03:28:12.749Z,587.00
2023-05-18T03:29:12.824Z,585.00
2023-05-18T03:30:12.872Z,583.00
2023-05-18T03:31:12.954Z,580.00
2023-05-18T03:32:12.984Z,587.00
2023-05-18T03:33:13.072Z,584.00
2023-05-18T03:34:14.316Z,578.00
2023-05-18T03:35:13.480Z,576.00
2023-05-18T03:36:13.260Z,579.00
2023-05-18T03:37:12.309Z,577.00
2023-05-18T03:38:12.379Z,576.00
2023-05-18T03:39:13.437Z,578.00
2023-05-18T03:40:13.531Z,580.00
2023-05-18T03:41:13.573Z,578.00
2023-05-18T03:42:12.628Z,581.00
2023-05-18T03:43:13.664Z,577.00
2023-05-18T03:44:13.733Z,580.00
2023-05-18T03:45:12.831Z,582.00
2023-05-18T03:46:13.920Z,581.00
2023-05-18T03:47:12.962Z,573.00
2023-05-18T03:48:13.033Z,579.00
2023-05-18T03:49:13.027Z,577.00
2023-05-18T03:50:14.113Z,575.00
2023-05-18T03:51:13.164Z,577.00
2023-05-18T03:52:14.246Z,577.00
2023-05-18T03:53:13.353Z,572.00
2023-05-18T03:54:13.366Z,567.00
2023-05-18T03:55:13.426Z,572.00
2023-05-18T03:56:13.469Z,565.00
2023-05-18T03:57:14.539Z,567.00
2023-05-18T03:58:13.612Z,563.00
2023-05-18T03:59:13.672Z,564.00
2023-05-18T04:00:14.743Z,570.00
2023-05-18T04:01:14.767Z,568.00
2023-05-18T04:02:13.872Z,562.00
2023-05-18T04:03:13.938Z,561.00
2023-05-18T04:04:13.984Z,558.00
2023-05-18T04:05:15.021Z,561.00
2023-05-18T04:06:14.062Z,568.00
2023-05-18T04:07:15.634Z,561.00
2023-05-18T04:08:15.180Z,569.00
2023-05-18T04:09:15.259Z,568.00
2023-05-18T04:10:15.298Z,571.00
2023-05-18T04:11:15.392Z,572.00
2023-05-18T04:12:14.432Z,567.00
2023-05-18T04:13:15.495Z,571.00
2023-05-18T04:14:15.566Z,565.00
2023-05-18T04:15:15.633Z,565.00
2023-05-18T04:16:15.782Z,573.00
2023-05-18T04:17:14.728Z,573.00
2023-05-18T04:18:15.802Z,567.00
2023-05-18T04:19:16.008Z,572.00
2023-05-18T04:20:15.112Z,568.00
2023-05-18T04:21:15.993Z,569.00
2023-05-18T04:22:16.070Z,563.00
2023-05-18T04:23:15.137Z,562.00
2023-05-18T04:24:16.178Z,563.00
2023-05-18T04:25:15.280Z,566.00
2023-05-18T04:26:15.305Z,567.00
2023-05-18T04:27:16.351Z,566.00
2023-05-18T04:28:16.434Z,567.00
2023-05-18T04:29:16.506Z,571.00
2023-05-18T04:30:16.558Z,568.00
2023-05-18T04:31:16.596Z,570.00
2023-05-18T04:32:15.720Z,574.00
2023-05-18T04:33:16.712Z,571.00
2023-05-18T04:34:16.773Z,576.00
2023-05-18T04:35:16.824Z,575.00
2023-05-18T04:36:15.890Z,570.00
2023-05-18T04:37:16.955Z,572.00
2023-05-18T04:38:17.024Z,571.00
2023-05-18T04:39:17.099Z,569.00
2023-05-18T04:40:17.666Z,566.00
2023-05-18T04:41:17.205Z,564.00
2023-05-18T04:42:17.271Z,560.00
2023-05-18T04:43:16.361Z,564.00
2023-05-18T04:44:16.418Z,560.00
2023-05-18T04:45:17.477Z,559.00
2023-05-18T04:46:16.581Z,560.00
2023-05-18T04:47:16.608Z,564.00
2023-05-18T04:48:17.723Z,563.00
2023-05-18T04:49:16.725Z,561.00
2023-05-18T04:50:16.785Z,569.00
2023-05-18T04:51:17.855Z,562.00
2023-05-18T04:52:17.902Z,562.00
2023-05-18T04:53:18.011Z,560.00
2023-05-18T04:54:18.042Z,562.00
2023-05-18T04:55:17.113Z,564.00
2023-05-18T04:56:18.174Z,562.00
2023-05-18T04:57:18.448Z,560.00
2023-05-18T04:58:17.267Z,560.00
2023-05-18T04:59:18.314Z,562.00
2023-05-18T05:00:17.367Z,561.00
2023-05-18T05:01:18.485Z,560.00
2023-05-18T05:02:17.479Z,563.00
2023-05-18T05:03:17.628Z,565.00
2023-05-18T05:04:18.592Z,566.00
2023-05-18T05:05:17.654Z,564.00
2023-05-18T05:06:18.700Z,558.00
2023-05-18T05:07:17.774Z,565.00
2023-05-18T05:08:17.847Z,559.00
2023-05-18T05:09:18.894Z,559.00
2023-05-18T05:10:17.957Z,561.00
2023-05-18T05:11:18.023Z,560.00
2023-05-18T05:12:18.084Z,563.00
2023-05-18T05:13:19.133Z,564.00
2023-05-18T05:14:18.195Z,561.00
2023-05-18T05:15:19.312Z,563.00
2023-05-18T05:16:19.383Z,566.00
2023-05-18T05:17:19.396Z,562.00
2023-05-18T05:18:18.492Z,560.00
2023-05-18T05:19:18.575Z,566.00
2023-05-18T05:20:19.625Z,558.00
2023-05-18T05:21:18.655Z,556.00
2023-05-18T05:22:19.745Z,556.00
2023-05-18T05:23:19.850Z,555.00
2023-05-18T05:24:19.851Z,555.00
2023-05-18T05:25:19.919Z,556.00
2023-05-18T05:26:19.997Z,551.00
2023-05-18T05:27:19.040Z,560.00
2023-05-18T05:28:20.112Z,557.00
2023-05-18T05:29:19.176Z,560.00
2023-05-18T05:30:20.248Z,557.00
2023-05-18T05:31:20.349Z,564.00
2023-05-18T05:32:19.340Z,559.00
2023-05-18T05:33:20.441Z,556.00
2023-05-18T05:34:20.463Z,560.00
2023-05-18T05:35:19.518Z,559.00
2023-05-18T05:36:20.621Z,553.00
2023-05-18T05:37:19.660Z,556.00
2023-05-18T05:38:19.718Z,557.00
2023-05-18T05:39:20.790Z,557.00
2023-05-18T05:40:20.816Z,553.00
2023-05-18T05:41:20.887Z,549.00
2023-05-18T05:42:20.960Z,549.00
2023-05-18T05:43:20.027Z,547.00
2023-05-18T05:44:21.080Z,548.00
2023-05-18T05:45:21.161Z,556.00
2023-05-18T05:46:21.290Z,551.00
2023-05-18T05:47:20.277Z,550.00
2023-05-18T05:48:21.364Z,554.00
2023-05-18T05:49:21.397Z,552.00
2023-05-18T05:50:21.466Z,550.00
2023-05-18T05:51:20.518Z,548.00
2023-05-18T05:52:21.602Z,552.00
2023-05-18T05:53:21.628Z,550.00
2023-05-18T05:54:20.669Z,550.00
2023-05-18T05:55:21.737Z,552.00
2023-05-18T05:56:20.796Z,553.00
2023-05-18T05:57:21.860Z,553.00
2023-05-18T05:58:21.923Z,555.00
2023-05-18T05:59:22.007Z,555.00
2023-05-18T06:00:22.061Z,559.00
2023-05-18T06:01:21.113Z,550.00
2023-05-18T06:02:22.221Z,547.00
2023-05-18T06:03:22.365Z,545.00
2023-05-18T06:04:22.364Z,546.00
2023-05-18T06:05:22.327Z,548.00
2023-05-18T06:06:22.331Z,554.00
2023-05-18T06:07:22.328Z,550.00
2023-05-18T06:08:21.353Z,546.00
2023-05-18T06:09:21.318Z,546.00
2023-05-18T06:10:22.306Z,550.00
2023-05-18T06:11:22.320Z,546.00
2023-05-18T06:12:22.361Z,549.00
2023-05-18T06:13:21.343Z,546.00
2023-05-18T06:14:22.339Z,552.00
2023-05-18T06:15:21.331Z,546.00
2023-05-18T06:16:22.440Z,548.00
2023-05-18T06:17:22.351Z,551.00
2023-05-18T06:18:21.334Z,546.00
2023-05-18T06:19:22.386Z,551.00
2023-05-18T06:20:22.335Z,550.00
2023-05-18T06:21:22.318Z,547.00
2023-05-18T06:22:21.327Z,552.00
2023-05-18T06:23:22.341Z,555.00
2023-05-18T06:24:22.442Z,554.00
2023-05-18T06:25:21.344Z,549.00
2023-05-18T06:26:22.358Z,554.00
2023-05-18T06:27:21.380Z,548.00
2023-05-18T06:28:21.399Z,549.00
2023-05-18T06:29:21.408Z,547.00
2023-05-18T06:30:22.413Z,541.00
2023-05-18T06:31:22.444Z,540.00
2023-05-18T06:32:22.607Z,537.00
2023-05-18T06:33:21.466Z,541.00
2023-05-18T06:34:22.466Z,544.00
2023-05-18T06:35:21.485Z,538.00
2023-05-18T06:36:22.500Z,540.00
2023-05-18T06:37:22.541Z,545.00
2023-05-18T06:38:22.594Z,540.00
2023-05-18T06:39:22.602Z,543.00
2023-05-18T06:40:22.703Z,544.00
2023-05-18T06:41:22.758Z,540.00
2023-05-18T06:42:22.785Z,544.00
2023-05-18T06:43:22.859Z,543.00
2023-05-18T06:44:22.933Z,538.00
2023-05-18T06:45:22.984Z,534.00
2023-05-18T06:46:23.142Z,536.00
2023-05-18T06:47:22.184Z,533.00
2023-05-18T06:48:23.178Z,536.00
2023-05-18T06:49:22.243Z,539.00
2023-05-18T06:50:23.306Z,540.00
2023-05-18T06:51:22.376Z,544.00
2023-05-18T06:52:23.233Z,542.00
2023-05-18T06:53:22.508Z,543.00
2023-05-18T06:54:23.558Z,542.00
2023-05-18T06:55:22.606Z,536.00
2023-05-18T06:56:23.774Z,535.00
2023-05-18T06:57:23.744Z,534.00
2023-05-18T06:58:23.794Z,535.00
2023-05-18T06:59:23.877Z,538.00
2023-05-18T07:00:23.914Z,542.00
2023-05-18T07:01:23.997Z,542.00
2023-05-18T07:02:23.005Z,540.00
2023-05-18T07:03:24.083Z,544.00
2023-05-18T07:04:23.106Z,543.00
2023-05-18T07:05:23.154Z,537.00
2023-05-18T07:06:23.204Z,543.00
2023-05-18T07:07:24.250Z,541.00
2023-05-18T07:08:23.317Z,542.00
2023-05-18T07:09:24.349Z,543.00
2023-05-18T07:10:24.399Z,544.00
2023-05-18T07:11:24.463Z,541.00
2023-05-18T07:12:24.511Z,544.00
2023-05-18T07:13:24.548Z,548.00
2023-05-18T07:14:24.597Z,547.00
2023-05-18T07:15:24.648Z,543.00
2023-05-18T07:16:23.749Z,550.00
2023-05-18T07:17:24.776Z,547.00
2023-05-18T07:18:24.784Z,539.00
2023-05-18T07:19:24.900Z,548.00
2023-05-18T07:20:26.474Z,544.00
2023-05-18T07:21:23.863Z,551.00
2023-05-18T07:22:23.875Z,547.00
2023-05-18T07:23:23.848Z,549.00
2023-05-18T07:24:24.854Z,546.00
2023-05-18T07:25:24.834Z,554.00
2023-05-18T07:26:24.834Z,552.00
2023-05-18T07:27:23.841Z,549.00
2023-05-18T07:28:24.850Z,549.00
2023-05-18T07:29:24.810Z,547.00
2023-05-18T07:30:23.816Z,546.00
2023-05-18T07:31:24.828Z,542.00
2023-05-18T07:32:23.824Z,536.00
2023-05-18T07:33:24.781Z,538.00
2023-05-18T07:34:23.787Z,534.00
2023-05-18T07:35:23.788Z,537.00
2023-05-18T07:36:24.754Z,543.00
2023-05-18T07:37:23.755Z,540.00
2023-05-18T07:38:24.768Z,543.00
2023-05-18T07:39:24.760Z,534.00
2023-05-18T07:40:24.733Z,541.00
2023-05-18T07:41:24.722Z,541.00
2023-05-18T07:42:24.704Z,539.00
2023-05-18T07:43:24.731Z,530.00
2023-05-18T07:44:24.734Z,533.00
2023-05-18T07:45:23.684Z,533.00
2023-05-18T07:46:24.733Z,531.00
2023-05-18T07:47:24.768Z,531.00
2023-05-18T07:48:23.825Z,531.00
2023-05-18T07:49:23.674Z,532.00
2023-05-18T07:50:25.018Z,529.00
2023-05-18T07:51:24.646Z,535.00
2023-05-18T07:52:23.696Z,530.00
2023-05-18T07:53:24.810Z,528.00
2023-05-18T07:54:23.857Z,527.00
2023-05-18T07:55:24.918Z,520.00
2023-05-18T07:56:24.011Z,517.00
2023-05-18T07:57:24.993Z,521.00
2023-05-18T07:58:24.123Z,519.00
2023-05-18T07:59:24.082Z,518.00
2023-05-18T08:00:25.222Z,514.00
2023-05-18T08:01:24.238Z,518.00
2023-05-18T08:02:24.320Z,515.00
2023-05-18T08:03:25.267Z,523.00
2023-05-18T08:04:24.359Z,518.00
2023-05-18T08:05:25.327Z,523.00
2023-05-18T08:06:25.555Z,517.00
2023-05-18T08:07:24.613Z,513.00
2023-05-18T08:08:24.512Z,514.00
2023-05-18T08:09:25.862Z,517.00
2023-05-18T08:10:25.675Z,511.00
2023-05-18T08:11:25.754Z,511.00
2023-05-18T08:12:24.879Z,511.00
2023-05-18T08:13:25.690Z,515.00
2023-05-18T08:14:26.010Z,507.00
2023-05-18T08:15:25.924Z,513.00
2023-05-18T08:16:25.023Z,509.00
2023-05-18T08:17:25.897Z,516.00
2023-05-18T08:18:24.915Z,507.00
2023-05-18T08:19:26.140Z,506.00
2023-05-18T08:20:26.010Z,502.00
2023-05-18T08:21:26.063Z,504.00
2023-05-18T08:22:25.108Z,503.00
2023-05-18T08:23:25.165Z,504.00
2023-05-18T08:24:26.214Z,509.00
2023-05-18T08:25:26.262Z,500.00
2023-05-18T08:26:26.302Z,511.00
2023-05-18T08:27:26.353Z,504.00
2023-05-18T08:28:26.397Z,506.00
2023-05-18T08:29:26.750Z,503.00
2023-05-18T08:30:26.667Z,505.00
2023-05-18T08:31:26.645Z,505.00
2023-05-18T08:32:25.613Z,502.00
2023-05-18T08:33:25.635Z,506.00
2023-05-18T08:34:26.757Z,500.00
2023-05-18T08:35:26.758Z,503.00
2023-05-18T08:36:25.795Z,507.00
2023-05-18T08:37:25.934Z,503.00
2023-05-18T08:38:26.893Z,501.00
2023-05-18T08:39:25.937Z,502.00
2023-05-18T08:40:25.983Z,505.00
2023-05-18T08:41:26.014Z,504.00
2023-05-18T08:42:34.429Z,503.00
2023-05-18T08:43:29.414Z,504.00
2023-05-18T08:44:26.061Z,504.00
2023-05-18T08:45:27.058Z,504.00
2023-05-18T08:46:27.047Z,505.00
2023-05-18T08:47:27.162Z,504.00
2023-05-18T08:48:28.192Z,502.00
2023-05-18T08:49:27.078Z,509.00
2023-05-18T08:50:27.160Z,508.00
2023-05-18T08:51:26.185Z,505.00
2023-05-18T08:52:26.221Z,506.00
2023-05-18T08:53:27.283Z,504.00
2023-05-18T08:54:27.324Z,507.00
2023-05-18T08:55:26.378Z,508.00
2023-05-18T08:56:27.413Z,500.00
2023-05-18T08:57:27.456Z,501.00
2023-05-18T08:58:26.505Z,500.00
2023-05-18T08:59:27.598Z,506.00
2023-05-18T09:00:26.725Z,503.00
2023-05-18T09:01:27.701Z,510.00
2023-05-18T09:02:26.757Z,507.00
2023-05-18T09:03:26.792Z,507.00
2023-05-18T09:04:27.887Z,509.00
2023-05-18T09:05:27.970Z,510.00
2023-05-18T09:06:26.896Z,510.00
2023-05-18T09:07:27.963Z,511.00
2023-05-18T09:08:27.147Z,511.00
2023-05-18T09:09:27.146Z,506.00
2023-05-18T09:10:28.301Z,517.00
2023-05-18T09:11:27.302Z,510.00
2023-05-18T09:12:27.394Z,512.00
2023-05-18T09:13:28.375Z,510.00
2023-05-18T09:14:28.475Z,513.00
2023-05-18T09:15:27.670Z,507.00
2023-05-18T09:16:27.579Z,514.00
2023-05-18T09:17:28.811Z,511.00
2023-05-18T09:18:28.577Z,510.00
2023-05-18T09:19:28.810Z,518.00
2023-05-18T09:20:27.731Z,515.00
2023-05-18T09:21:28.002Z,515.00
2023-05-18T09:22:28.955Z,517.00
2023-05-18T09:23:28.950Z,518.00
2023-05-18T09:24:29.153Z,516.00
2023-05-18T09:25:29.243Z,517.00
2023-05-18T09:26:28.362Z,511.00
2023-05-18T09:27:29.390Z,515.00
2023-05-18T09:28:29.421Z,521.00
2023-05-18T09:29:31.158Z,521.00
2023-05-18T09:30:28.352Z,521.00
2023-05-18T09:31:28.398Z,522.00
2023-05-18T09:32:28.297Z,520.00
2023-05-18T09:33:29.335Z,518.00
2023-05-18T09:34:28.245Z,522.00
2023-05-18T09:35:29.780Z,521.00
2023-05-18T09:36:28.204Z,524.00
2023-05-18T09:37:28.224Z,533.00
2023-05-18T09:38:29.249Z,523.00
2023-05-18T09:39:29.501Z,520.00
2023-05-18T09:40:29.250Z,521.00
2023-05-18T09:41:29.172Z,516.00
2023-05-18T09:42:28.162Z,521.00
2023-05-18T09:43:28.235Z,522.00
2023-05-18T09:44:28.293Z,525.00
2023-05-18T09:45:29.616Z,522.00
2023-05-18T09:46:29.486Z,520.00
2023-05-18T09:47:28.482Z,517.00
2023-05-18T09:48:29.725Z,512.00
2023-05-18T09:49:28.604Z,508.00
2023-05-18T09:50:29.885Z,511.00
2023-05-18T09:51:28.794Z,507.00
2023-05-18T09:52:29.772Z,508.00
2023-05-18T09:53:28.849Z,520.00
2023-05-18T09:54:29.920Z,515.00
2023-05-18T09:55:30.233Z,509.00
2023-05-18T09:56:29.000Z,509.00
2023-05-18T09:57:29.095Z,503.00
2023-05-18T09:58:30.133Z,504.00
2023-05-18T09:59:30.220Z,510.00
2023-05-18T10:00:29.284Z,504.00
2023-05-18T10:01:30.424Z,508.00
2023-05-18T10:02:30.407Z,512.00
2023-05-18T10:03:30.449Z,511.00
2023-05-18T10:04:30.691Z,510.00
2023-05-18T10:05:33.231Z,501.00
2023-05-18T10:06:29.726Z,501.00
2023-05-18T10:07:29.842Z,502.00
2023-05-18T10:08:30.720Z,502.00
2023-05-18T10:09:30.662Z,503.00
2023-05-18T10:10:31.089Z,508.00
2023-05-18T10:11:29.802Z,503.00
2023-05-18T10:12:29.824Z,504.00
2023-05-18T10:13:30.940Z,507.00
2023-05-18T10:14:31.337Z,507.00
2023-05-18T10:15:30.292Z,502.00
2023-05-18T10:16:30.094Z,504.00
2023-05-18T10:17:30.180Z,506.00
2023-05-18T10:18:30.225Z,506.00
2023-05-18T10:19:31.338Z,509.00
2023-05-18T10:20:30.579Z,501.00
2023-05-18T10:21:30.350Z,502.00
2023-05-18T10:22:31.476Z,503.00
2023-05-18T10:23:30.486Z,503.00
2023-05-18T10:24:31.542Z,506.00
2023-05-18T10:25:31.606Z,504.00
2023-05-18T10:26:31.679Z,502.00
2023-05-18T10:27:31.747Z,503.00
2023-05-18T10:28:30.818Z,507.00
2023-05-18T10:29:31.877Z,509.00
2023-05-18T10:30:32.171Z,505.00
2023-05-18T10:31:32.064Z,505.00
2023-05-18T10:32:31.111Z,503.00
2023-05-18T10:33:31.227Z,504.00
2023-05-18T10:34:31.193Z,511.00
2023-05-18T10:35:31.241Z,510.00
2023-05-18T10:36:32.324Z,508.00
2023-05-18T10:37:31.357Z,509.00
2023-05-18T10:38:31.452Z,508.00
2023-05-18T10:39:31.494Z,503.00
2023-05-18T10:40:32.778Z,507.00
2023-05-18T10:41:31.617Z,507.00
2023-05-18T10:42:31.838Z,509.00
2023-05-18T10:43:31.835Z,506.00
2023-05-18T10:44:31.937Z,502.00
2023-05-18T10:45:32.857Z,510.00
2023-05-18T10:46:32.096Z,508.00
2023-05-18T10:47:33.128Z,509.00
2023-05-18T10:48:33.117Z,511.00
2023-05-18T10:49:32.118Z,510.00
2023-05-18T10:50:32.498Z,506.00
2023-05-18T10:51:32.235Z,508.00
2023-05-18T10:52:33.375Z,508.00
2023-05-18T10:53:33.416Z,511.00
2023-05-18T10:54:32.459Z,506.00
2023-05-18T10:55:33.504Z,505.00
2023-05-18T10:56:33.554Z,504.00
2023-05-18T10:57:32.629Z,505.00
2023-05-18T10:58:33.689Z,508.00
2023-05-18T10:59:32.759Z,502.00
2023-05-18T11:00:32.975Z,503.00
2023-05-18T11:01:33.914Z,501.00
2023-05-18T11:02:33.178Z,506.00
2023-05-18T11:03:33.153Z,504.00
2023-05-18T11:04:34.079Z,506.00
2023-05-18T11:05:33.109Z,510.00
2023-05-18T11:06:34.185Z,505.00
2023-05-18T11:07:33.258Z,511.00
2023-05-18T11:08:33.328Z,514.00
2023-05-18T11:09:34.364Z,511.00
2023-05-18T11:10:34.437Z,513.00
2023-05-18T11:11:34.481Z,511.00
2023-05-18T11:12:33.538Z,512.00
2023-05-18T11:13:34.624Z,512.00
2023-05-18T11:14:34.685Z,508.00
2023-05-18T11:15:34.749Z,514.00
2023-05-18T11:16:34.863Z,516.00
2023-05-18T11:17:33.918Z,520.00
2023-05-18T11:18:35.030Z,515.00
2023-05-18T11:19:34.013Z,513.00
2023-05-18T11:20:35.083Z,517.00
2023-05-18T11:21:34.232Z,517.00
2023-05-18T11:22:34.740Z,514.00
2023-05-18T11:23:34.260Z,515.00
2023-05-18T11:24:34.345Z,517.00
2023-05-18T11:25:34.417Z,520.00
2023-05-18T11:26:34.755Z,516.00
2023-05-18T11:27:35.487Z,517.00
2023-05-18T11:28:35.555Z,509.00
2023-05-18T11:29:34.715Z,511.00
2023-05-18T11:30:35.021Z,514.00
2023-05-18T11:31:35.756Z,515.00
2023-05-18T11:32:35.946Z,517.00
2023-05-18T11:33:35.895Z,520.00
2023-05-18T11:34:36.536Z,513.00
2023-05-18T11:35:35.018Z,518.00
2023-05-18T11:36:35.875Z,520.00
2023-05-18T11:37:35.890Z,523.00
2023-05-18T11:38:35.883Z,521.00
2023-05-18T11:39:39.746Z,521.00
2023-05-18T11:40:35.873Z,522.00
2023-05-18T11:41:35.857Z,524.00
2023-05-18T11:42:34.895Z,523.00
2023-05-18T11:43:34.841Z,523.00
2023-05-18T11:44:35.865Z,525.00
2023-05-18T11:45:34.838Z,526.00
2023-05-18T11:46:35.856Z,529.00
2023-05-18T11:47:35.840Z,522.00
2023-05-18T11:48:35.995Z,521.00
2023-05-18T11:49:35.808Z,522.00
2023-05-18T11:50:34.799Z,519.00
2023-05-18T11:51:35.785Z,521.00
2023-05-18T11:52:34.781Z,519.00
2023-05-18T11:53:35.765Z,517.00
2023-05-18T11:54:35.803Z,524.00
2023-05-18T11:55:34.753Z,516.00
2023-05-18T11:56:34.762Z,521.00
2023-05-18T11:57:35.754Z,523.00
2023-05-18T11:58:34.847Z,521.00
2023-05-18T11:59:34.720Z,521.00
2023-05-18T12:00:35.730Z,528.00
2023-05-18T12:01:34.830Z,524.00
2023-05-18T12:02:34.781Z,523.00
2023-05-18T12:03:35.783Z,520.00
2023-05-18T12:04:35.862Z,518.00
2023-05-18T12:05:36.006Z,524.00
2023-05-18T12:06:35.913Z,520.00
2023-05-18T12:07:34.964Z,523.00
2023-05-18T12:08:36.036Z,525.00
2023-05-18T12:09:36.094Z,527.00
2023-05-18T12:10:35.199Z,528.00
2023-05-18T12:11:36.225Z,527.00
2023-05-18T12:12:36.282Z,527.00
2023-05-18T12:13:35.362Z,523.00
2023-05-18T12:14:35.514Z,521.00
2023-05-18T12:15:36.475Z,523.00
2023-05-18T12:16:36.604Z,526.00
2023-05-18T12:17:35.660Z,529.00
2023-05-18T12:18:35.656Z,525.00
2023-05-18T12:19:35.710Z,525.00
2023-05-18T12:20:36.797Z,528.00
2023-05-18T12:21:35.855Z,527.00
2023-05-18T12:22:35.927Z,526.00
2023-05-18T12:23:37.023Z,526.00
2023-05-18T12:24:37.052Z,523.00
2023-05-18T12:25:37.116Z,519.00
2023-05-18T12:26:36.145Z,517.00
2023-05-18T12:27:36.189Z,519.00
2023-05-18T12:28:36.261Z,516.00